createdAt,value
2019-01-03T00:03:49.221Z,3.70
2019-01-03T00:08:02.850Z,3.70
2019-01-03T00:12:16.346Z,3.70
2019-01-03T00:16:28.979Z,3.70
2019-01-03T00:20:44.530Z,3.60
2019-01-03T00:24:57.248Z,3.60
2019-01-03T00:29:12.851Z,3.60
2019-01-03T00:33:25.485Z,3.50
2019-01-03T00:37:39.144Z,3.50
2019-01-03T00:41:53.588Z,3.60
2019-01-03T00:46:23.310Z,3.60
2019-01-03T00:52:39.538Z,3.60
2019-01-03T00:56:52.228Z,3.70
2019-01-03T01:01:04.899Z,3.60
2019-01-03T01:05:19.417Z,3.60
2019-01-03T01:09:33.165Z,3.70
2019-01-03T01:14:03.827Z,3.70
2019-01-03T01:18:20.218Z,3.70
2019-01-03T01:24:39.697Z,3.70
2019-01-03T01:28:54.117Z,3.70
2019-01-03T01:33:07.836Z,3.80
2019-01-03T01:37:25.557Z,3.70
2019-01-03T01:41:44.934Z,3.80
2019-01-03T01:48:05.212Z,3.80
2019-01-03T01:52:24.813Z,3.70
2019-01-03T01:56:38.446Z,3.80
2019-01-03T02:00:52.846Z,3.70
2019-01-03T02:05:06.427Z,3.70
2019-01-03T02:09:24.877Z,3.80
2019-01-03T02:13:46.434Z,3.80
2019-01-03T02:20:01.762Z,3.80
2019-01-03T02:24:15.467Z,3.90
2019-01-03T02:28:30.118Z,3.90
2019-01-03T02:32:43.964Z,3.90
2019-01-03T02:36:57.424Z,3.80
2019-01-03T02:41:13.888Z,3.80
2019-01-03T02:45:58.766Z,3.90
2019-01-03T02:50:13.188Z,4.00
2019-01-03T02:54:26.852Z,4.00
2019-01-03T02:58:40.622Z,3.90
2019-01-03T03:03:04.177Z,3.80
2019-01-03T03:07:20.851Z,3.80
2019-01-03T03:12:40.836Z,3.90
2019-01-03T03:17:00.268Z,3.90
2019-01-03T03:21:43.885Z,3.80
2019-01-03T03:27:59.818Z,3.90
2019-01-03T03:32:13.615Z,3.90
2019-01-03T03:36:27.283Z,4.00
2019-01-03T03:40:40.012Z,3.90
2019-01-03T03:45:04.598Z,3.90
2019-01-03T03:49:18.455Z,4.00
2019-01-03T03:54:34.430Z,4.00
2019-01-03T03:58:48.107Z,4.10
2019-01-03T04:03:01.885Z,4.00
2019-01-03T04:07:17.281Z,4.00
2019-01-03T04:11:30.790Z,4.10
2019-01-03T04:15:48.262Z,4.10
2019-01-03T04:20:02.921Z,4.20
2019-01-03T04:24:19.396Z,4.20
2019-01-03T04:28:37.948Z,4.20
2019-01-03T04:32:51.554Z,4.20
2019-01-03T04:37:09.148Z,4.30
2019-01-03T04:41:23.599Z,4.20
2019-01-03T04:45:37.142Z,4.20
2019-01-03T04:49:50.836Z,4.10
2019-01-03T04:54:04.369Z,4.10
2019-01-03T04:58:21.881Z,4.10
2019-01-03T05:03:33.266Z,4.20
2019-01-03T05:07:46.921Z,4.20
2019-01-03T05:12:04.375Z,4.20
2019-01-03T05:16:18.117Z,4.30
2019-01-03T05:20:36.591Z,4.20
2019-01-03T05:24:49.254Z,4.20
2019-01-03T05:29:29.022Z,4.20
2019-01-03T05:33:47.687Z,4.20
2019-01-03T05:38:11.271Z,4.30
2019-01-03T05:42:27.940Z,4.30
2019-01-03T05:46:41.634Z,4.20
2019-01-03T05:50:55.519Z,4.10
2019-01-03T05:55:09.217Z,4.10
2019-01-03T06:01:27.640Z,4.20
2019-01-03T06:05:51.222Z,4.20
2019-01-03T06:11:05.391Z,4.30
2019-01-03T06:16:17.496Z,4.20
2019-01-03T06:20:33.106Z,4.20
2019-01-03T06:24:46.759Z,4.20
2019-01-03T06:29:00.397Z,4.20
2019-01-03T06:35:18.571Z,4.20
2019-01-03T06:39:32.139Z,4.20
2019-01-03T06:43:49.747Z,4.20
2019-01-03T06:48:03.320Z,4.20
2019-01-03T06:54:19.783Z,4.20
2019-01-03T06:58:36.203Z,4.20
2019-01-03T07:02:53.742Z,4.00
2019-01-03T07:07:12.234Z,4.00
2019-01-03T07:11:34.769Z,4.00
2019-01-03T07:15:48.452Z,4.00
2019-01-03T07:20:02.103Z,4.00
2019-01-03T07:25:18.155Z,4.00
2019-01-03T07:29:42.026Z,4.00
2019-01-03T07:33:54.517Z,4.00
2019-01-03T07:40:10.289Z,4.10
2019-01-03T07:44:23.819Z,4.10
2019-01-03T07:48:37.382Z,4.10
2019-01-03T07:53:54.295Z,4.10
2019-01-03T07:58:07.922Z,4.00
2019-01-03T08:06:37.009Z,4.20
2019-01-03T08:10:50.634Z,4.10
2019-01-03T08:17:10.706Z,4.20
2019-01-03T08:21:24.072Z,4.10
2019-01-03T08:25:37.669Z,4.30
2019-01-03T08:30:49.812Z,4.30
2019-01-03T08:35:10.341Z,4.40
2019-01-03T08:39:23.945Z,4.30
2019-01-03T08:43:37.533Z,4.40
2019-01-03T08:47:51.855Z,4.40
2019-01-03T08:52:05.421Z,4.40
2019-01-03T08:56:19.060Z,4.50
2019-01-03T09:00:31.579Z,4.40
2019-01-03T09:05:19.151Z,4.50
2019-01-03T09:09:40.632Z,4.50
2019-01-03T09:13:53.134Z,4.50
2019-01-03T09:18:09.608Z,4.60
2019-01-03T09:22:20.224Z,4.60
2019-01-03T09:26:36.774Z,4.70
2019-01-03T09:30:50.306Z,4.80
2019-01-03T09:35:07.674Z,4.70
2019-01-03T09:39:22.050Z,4.70
2019-01-03T09:43:36.556Z,4.80
2019-01-03T09:47:44.886Z,4.90
2019-01-03T09:51:53.179Z,4.90
2019-01-03T09:56:01.462Z,5.00
2019-01-03T10:00:09.706Z,5.00
2019-01-03T10:04:17.985Z,5.10
2019-01-03T10:08:26.247Z,5.00
2019-01-03T10:12:34.518Z,5.20
2019-01-03T10:16:42.777Z,5.20
2019-01-03T10:20:51.123Z,5.30
2019-01-03T10:25:00.860Z,5.20
2019-01-03T10:29:09.157Z,5.20
2019-01-03T10:33:17.396Z,5.40
2019-01-03T10:37:25.686Z,5.30
2019-01-03T10:41:33.956Z,5.40
2019-01-03T10:45:42.203Z,5.40
2019-01-03T10:49:50.481Z,5.40
2019-01-03T10:53:58.717Z,5.60
2019-01-03T10:58:07.002Z,5.60
2019-01-03T11:02:15.233Z,5.60
2019-01-03T11:06:23.554Z,5.70
2019-01-03T11:10:31.886Z,5.70
2019-01-03T11:14:40.141Z,5.80
2019-01-03T11:18:48.386Z,5.70
2019-01-03T11:22:56.666Z,5.70
2019-01-03T11:27:04.904Z,5.70
2019-01-03T11:31:13.216Z,5.90
2019-01-03T11:35:21.496Z,5.90
2019-01-03T11:39:29.785Z,5.90
2019-01-03T11:43:38.020Z,5.90
2019-01-03T11:47:46.297Z,6.00
2019-01-03T11:51:54.626Z,6.00
2019-01-03T11:56:02.911Z,5.90
2019-01-03T12:00:11.222Z,5.90
2019-01-03T12:04:19.484Z,5.80
2019-01-03T12:08:27.783Z,5.80
2019-01-03T12:12:36.061Z,6.00
2019-01-03T12:16:44.289Z,6.00
2019-01-03T12:20:52.569Z,6.00
2019-01-03T12:25:00.939Z,6.00
2019-01-03T12:29:09.233Z,6.00
2019-01-03T12:33:17.477Z,6.00
2019-01-03T12:37:25.779Z,5.90
2019-01-03T12:41:34.025Z,6.00
2019-01-03T12:45:42.244Z,6.00
2019-01-03T12:49:50.518Z,6.00
2019-01-03T12:53:58.766Z,6.00
2019-01-03T12:58:07.054Z,6.10
2019-01-03T13:02:15.324Z,6.00
2019-01-03T13:06:23.589Z,6.20
2019-01-03T13:10:31.810Z,6.20
2019-01-03T13:14:40.078Z,6.20
2019-01-03T13:18:48.331Z,6.10
2019-01-03T13:22:56.584Z,6.10
2019-01-03T13:27:04.836Z,6.20
2019-01-03T13:31:13.082Z,6.10
2019-01-03T13:35:21.361Z,6.10
2019-01-03T13:39:29.628Z,6.10
2019-01-03T13:43:37.869Z,6.10
2019-01-03T13:47:46.105Z,6.10
2019-01-03T13:51:54.401Z,6.20
2019-01-03T13:56:02.727Z,6.20
2019-01-03T14:00:11.230Z,6.20
2019-01-03T14:04:19.481Z,6.00
2019-01-03T14:08:27.793Z,6.00
2019-01-03T14:12:36.052Z,6.10
2019-01-03T14:16:44.307Z,6.20
2019-01-03T14:20:52.589Z,6.20
2019-01-03T14:25:00.861Z,6.20
2019-01-03T14:29:09.172Z,6.20
2019-01-03T14:33:17.447Z,6.10
2019-01-03T14:37:25.785Z,6.10
2019-01-03T14:41:34.051Z,6.10
2019-01-03T14:45:42.349Z,6.10
2019-01-03T14:49:50.594Z,6.20
2019-01-03T14:53:58.829Z,6.10
2019-01-03T14:58:07.137Z,6.10
2019-01-03T15:02:15.363Z,6.10
2019-01-03T15:10:31.657Z,6.00
2019-01-03T15:14:39.944Z,6.00
2019-01-03T15:18:48.252Z,5.90
2019-01-03T15:22:56.470Z,6.00
2019-01-03T15:27:04.756Z,6.00
2019-01-03T15:31:13.027Z,5.90
2019-01-03T15:35:21.335Z,5.80
2019-01-03T15:39:29.571Z,6.00
2019-01-03T15:43:37.909Z,5.90
2019-01-03T15:47:46.170Z,5.90
2019-01-03T15:51:54.405Z,5.80
2019-01-03T15:56:02.654Z,5.80
2019-01-03T16:00:11.148Z,5.80
2019-01-03T16:04:19.402Z,5.80
2019-01-03T16:08:27.673Z,5.80
2019-01-03T16:12:35.954Z,5.80
2019-01-03T16:16:44.234Z,5.80
2019-01-03T16:20:52.523Z,5.80
2019-01-03T16:25:03.752Z,5.70
2019-01-03T16:29:12.591Z,5.70
2019-01-03T16:33:20.896Z,5.80
2019-01-03T16:37:29.232Z,5.80
2019-01-03T16:41:37.478Z,5.60
2019-01-03T16:45:45.837Z,5.50
2019-01-03T16:49:54.097Z,5.50
2019-01-03T16:54:02.353Z,5.40
2019-01-03T16:58:10.668Z,5.30
2019-01-03T17:02:19.034Z,5.30
2019-01-03T17:06:27.322Z,5.30
2019-01-03T17:10:35.558Z,5.30
2019-01-03T17:14:43.856Z,5.30
2019-01-03T17:18:52.098Z,5.30
2019-01-03T17:23:00.376Z,5.40
2019-01-03T17:27:08.692Z,5.30
2019-01-03T17:31:17.036Z,5.20
2019-01-03T17:35:25.315Z,5.10
2019-01-03T17:39:33.570Z,5.20
2019-01-03T17:43:41.833Z,5.20
2019-01-03T17:47:50.076Z,5.20
2019-01-03T17:51:58.364Z,5.20
2019-01-03T17:56:06.630Z,5.20
2019-01-03T18:00:18.050Z,5.00
2019-01-03T18:04:26.335Z,5.00
2019-01-03T18:08:34.598Z,5.10
2019-01-03T18:12:42.882Z,5.10
2019-01-03T18:16:51.154Z,5.00
2019-01-03T18:20:59.442Z,5.10
2019-01-03T18:25:07.728Z,5.10
2019-01-03T18:29:15.965Z,5.00
2019-01-03T18:33:24.257Z,5.10
2019-01-03T18:37:32.495Z,5.00
2019-01-03T18:41:44.947Z,5.10
2019-01-03T18:45:53.217Z,5.10
2019-01-03T18:50:01.461Z,5.10
2019-01-03T18:54:09.766Z,5.10
2019-01-03T18:58:19.325Z,5.10
2019-01-03T19:02:27.605Z,5.00
2019-01-03T19:06:35.893Z,5.00
2019-01-03T19:10:44.202Z,5.00
2019-01-03T19:14:52.508Z,5.00
2019-01-03T19:19:00.802Z,5.10
2019-01-03T19:23:09.037Z,5.00
2019-01-03T19:27:17.323Z,5.00
2019-01-03T19:31:25.594Z,5.10
2019-01-03T19:35:33.863Z,5.00
2019-01-03T19:39:42.121Z,5.00
2019-01-03T19:43:50.377Z,5.00
2019-01-03T19:47:58.657Z,5.00
2019-01-03T19:52:06.918Z,5.00
2019-01-03T19:56:15.197Z,5.00
2019-01-03T20:00:23.466Z,4.90
2019-01-03T20:04:31.745Z,5.00
2019-01-03T20:08:39.955Z,5.10
2019-01-03T20:12:48.304Z,5.10
2019-01-03T20:16:56.687Z,5.10
2019-01-03T20:21:04.943Z,5.00
2019-01-03T20:25:13.233Z,5.10
2019-01-03T20:29:21.496Z,4.90
2019-01-03T20:33:29.843Z,4.90
2019-01-03T20:37:38.141Z,5.00
2019-01-03T20:41:46.506Z,5.10
2019-01-03T20:45:54.806Z,5.00
2019-01-03T20:50:03.077Z,5.00
2019-01-03T20:54:11.881Z,4.90
2019-01-03T20:58:20.189Z,4.90
2019-01-03T21:02:28.413Z,5.00
2019-01-03T21:06:36.790Z,4.90
2019-01-03T21:10:45.089Z,4.80
2019-01-03T21:14:53.460Z,4.70
2019-01-03T21:19:01.737Z,4.70
2019-01-03T21:23:10.035Z,4.70
2019-01-03T21:27:18.285Z,4.60
2019-01-03T21:31:26.566Z,4.60
2019-01-03T21:35:34.865Z,4.50
2019-01-03T21:39:43.125Z,4.50
2019-01-03T21:43:51.453Z,4.40
2019-01-03T21:47:59.726Z,4.30
2019-01-03T21:52:07.948Z,4.30
2019-01-03T21:56:16.246Z,4.20
2019-01-03T22:00:24.501Z,4.30
2019-01-03T22:04:32.764Z,4.20
2019-01-03T22:08:41.049Z,4.20
2019-01-03T22:12:49.325Z,4.20
2019-01-03T22:16:57.617Z,4.30
2019-01-03T22:21:05.922Z,4.40
2019-01-03T22:25:14.199Z,4.30
2019-01-03T22:29:22.503Z,4.30
2019-01-03T22:33:30.802Z,4.30
2019-01-03T22:37:39.078Z,4.30
2019-01-03T22:41:47.332Z,4.20
2019-01-03T22:45:55.646Z,4.20
2019-01-03T22:50:03.981Z,4.20
2019-01-03T22:54:12.211Z,4.30
2019-01-03T22:58:20.486Z,4.30
2019-01-03T23:02:28.762Z,4.20
2019-01-03T23:06:37.073Z,4.20
2019-01-03T23:10:45.298Z,4.20
2019-01-03T23:14:53.575Z,4.20
2019-01-03T23:19:01.859Z,4.10
2019-01-03T23:23:10.168Z,4.00
2019-01-03T23:27:18.500Z,4.00
2019-01-03T23:31:26.738Z,4.00
2019-01-03T23:35:34.998Z,4.00
2019-01-03T23:39:43.250Z,4.00
2019-01-03T23:43:51.541Z,3.90
2019-01-03T23:48:00.995Z,3.90
2019-01-03T23:52:09.257Z,4.00
2019-01-03T23:56:17.505Z,4.00
